createdAt,value
2022-11-19T08:28:29.829Z,43.81
2022-11-19T08:31:25.844Z,32.58
2022-11-19T08:34:21.067Z,32.10
2022-11-19T08:37:09.627Z,34.64
2022-11-19T08:39:51.819Z,38.15
2022-11-19T08:43:04.634Z,41.84
2022-11-19T08:46:00.623Z,45.64
2022-11-19T08:48:34.801Z,48.48
2022-11-19T08:51:23.637Z,50.79
2022-11-19T08:54:06.623Z,52.68
2022-11-19T08:57:01.835Z,54.39
2022-11-19T08:59:49.697Z,54.82
2022-11-19T09:02:24.935Z,55.00
2022-11-19T09:05:14.778Z,55.98
2022-11-19T09:07:49.774Z,56.73
2022-11-19T09:10:37.634Z,57.98
2022-11-19T09:13:12.768Z,58.99
2022-11-19T09:16:00.620Z,59.90
2022-11-19T09:18:40.235Z,60.70
2022-11-19T09:21:27.721Z,61.23
2022-11-19T09:24:15.840Z,60.72
2022-11-19T09:27:10.618Z,60.33
2022-11-19T09:30:05.642Z,61.20
2022-11-19T09:32:53.633Z,60.84
2022-11-19T09:35:28.904Z,60.25
2022-11-19T09:38:16.791Z,60.58
2022-11-19T09:41:02.744Z,60.28
2022-11-19T09:44:02.634Z,60.39
2022-11-19T09:46:52.757Z,60.33
2022-11-19T09:49:57.702Z,60.95
2022-11-19T09:52:34.812Z,60.76
2022-11-19T09:55:29.613Z,60.84
2022-11-19T09:58:05.768Z,61.11
2022-11-19T10:00:53.619Z,61.12
2022-11-19T10:03:33.889Z,61.15
2022-11-19T10:06:21.620Z,61.04
2022-11-19T10:09:21.870Z,60.69
2022-11-19T10:12:30.637Z,60.68
2022-11-19T10:15:57.978Z,60.94
2022-11-19T10:18:49.271Z,60.69
2022-11-19T10:21:48.779Z,60.71
2022-11-19T10:25:04.291Z,59.83
2022-11-19T10:27:47.087Z,59.63
2022-11-19T10:30:37.626Z,60.53
2022-11-19T10:33:35.490Z,60.85
2022-11-19T10:36:22.844Z,59.53
2022-11-19T10:39:08.512Z,58.14
2022-11-19T10:41:59.682Z,58.17
2022-11-19T10:44:53.048Z,59.17
2022-11-19T10:47:55.094Z,58.06
2022-11-19T10:50:36.627Z,56.83
2022-11-19T10:53:36.825Z,56.61
2022-11-19T10:56:30.117Z,56.69
2022-11-19T10:59:26.597Z,57.23
2022-11-19T11:02:05.744Z,59.79
2022-11-19T11:05:26.596Z,61.32
2022-11-19T11:08:03.751Z,59.57
2022-11-19T11:10:56.506Z,58.72
2022-11-19T11:13:59.264Z,56.01
2022-11-19T11:16:54.699Z,55.25
2022-11-19T11:19:30.711Z,54.65
2022-11-19T11:22:18.617Z,55.97
2022-11-19T11:24:53.823Z,53.28
2022-11-19T11:27:43.607Z,52.30
2022-11-19T11:30:20.759Z,53.02
2022-11-19T11:33:40.738Z,53.69
2022-11-19T11:36:23.740Z,52.82
2022-11-19T11:39:12.680Z,52.47
2022-11-19T11:42:06.253Z,54.27
2022-11-19T11:45:11.587Z,54.70
2022-11-19T11:48:06.604Z,55.22
2022-11-19T11:50:54.593Z,56.30
2022-11-19T11:53:40.124Z,58.72
2022-11-19T11:56:28.600Z,60.85
2022-11-19T11:59:32.604Z,59.32
2022-11-19T12:02:39.621Z,57.67
2022-11-19T12:05:27.585Z,54.75
2022-11-19T12:08:16.602Z,52.62
2022-11-19T12:11:26.576Z,51.90
2022-11-19T12:14:12.614Z,51.04
2022-11-19T12:17:31.598Z,49.29
2022-11-19T12:20:50.591Z,49.02
2022-11-19T12:23:37.738Z,49.56
2022-11-19T12:26:41.609Z,50.03
2022-11-19T12:30:09.580Z,49.72
2022-11-19T12:33:04.611Z,49.43
2022-11-19T12:35:49.920Z,49.75
2022-11-19T12:38:52.594Z,51.37
2022-11-19T12:41:39.084Z,51.72
2022-11-19T12:44:49.869Z,60.89
2022-11-19T12:48:12.614Z,61.52
2022-11-19T12:51:16.731Z,56.04
2022-11-19T12:54:33.446Z,51.45
2022-11-19T12:58:06.612Z,48.02
2022-11-19T13:01:00.751Z,45.93
2022-11-19T13:03:50.779Z,44.80
2022-11-19T13:06:55.619Z,43.80
2022-11-19T13:09:55.583Z,41.52
2022-11-19T13:12:48.085Z,37.51
2022-11-19T13:15:36.160Z,35.89
2022-11-19T13:18:19.210Z,36.67
2022-11-19T13:21:15.594Z,39.61
2022-11-19T13:23:59.834Z,41.40
2022-11-19T13:26:52.846Z,43.76
2022-11-19T13:30:14.771Z,46.63
2022-11-19T13:33:20.442Z,48.01
2022-11-19T13:36:12.525Z,49.57
2022-11-19T13:39:22.061Z,50.97
2022-11-19T13:42:29.593Z,52.21
2022-11-19T13:45:06.101Z,54.53
2022-11-19T13:48:08.591Z,53.64
2022-11-19T13:50:58.068Z,53.77
2022-11-19T13:54:01.380Z,55.20
2022-11-19T13:56:56.777Z,55.14
2022-11-19T13:59:52.590Z,57.21
2022-11-19T14:03:00.911Z,56.90
2022-11-19T14:06:29.313Z,56.93
2022-11-19T14:09:32.704Z,57.14
2022-11-19T14:12:41.812Z,59.65
2022-11-19T14:16:11.289Z,57.96
2022-11-19T14:19:14.136Z,67.62
2022-11-19T14:22:18.629Z,62.87
2022-11-19T14:25:20.500Z,61.92
2022-11-19T14:28:57.926Z,60.95
2022-11-19T14:31:36.201Z,68.49
2022-11-19T14:34:42.436Z,68.52
2022-11-19T14:37:43.475Z,64.83
2022-11-19T14:40:43.857Z,57.70
2022-11-19T14:43:48.373Z,49.40
2022-11-19T14:46:43.779Z,48.32
2022-11-19T14:49:41.571Z,49.76
2022-11-19T14:52:35.994Z,51.32
2022-11-19T14:55:38.863Z,52.75
2022-11-19T14:58:31.660Z,54.58
2022-11-19T15:01:21.416Z,56.18
2022-11-19T15:04:15.612Z,57.68
2022-11-19T15:06:51.732Z,58.71
2022-11-19T15:10:21.945Z,59.86
2022-11-19T15:13:17.549Z,60.72
2022-11-19T15:16:27.577Z,61.73
2022-11-19T15:19:45.650Z,63.10
2022-11-19T15:22:47.421Z,63.64
2022-11-19T15:26:01.647Z,64.30
2022-11-19T15:29:25.579Z,65.34
2022-11-19T15:32:24.138Z,65.72
2022-11-19T15:35:26.285Z,65.85
2022-11-19T15:38:21.564Z,65.72
2022-11-19T15:41:10.782Z,65.75
2022-11-19T15:43:58.901Z,65.97
2022-11-19T15:46:54.562Z,65.94
2022-11-19T15:49:42.554Z,66.65
2022-11-19T15:52:30.539Z,72.96
2022-11-19T15:55:28.065Z,69.42
2022-11-19T15:58:25.803Z,65.88
2022-11-19T16:01:01.771Z,65.47
2022-11-19T16:03:55.415Z,65.10
2022-11-19T16:06:37.540Z,65.06
2022-11-19T16:09:31.582Z,65.03
2022-11-19T16:12:28.146Z,65.12
2022-11-19T16:15:54.105Z,65.67
2022-11-19T16:18:33.828Z,66.62
2022-11-19T16:21:40.621Z,67.43
2022-11-19T16:24:51.519Z,68.51
2022-11-19T16:27:47.307Z,69.03
2022-11-19T16:30:47.342Z,69.31
